createdAt,value
2023-01-26T00:01:20.690Z,8.20
2023-01-26T00:03:48.594Z,6.97
2023-01-26T00:06:19.273Z,8.43
2023-01-26T00:08:50.514Z,7.17
2023-01-26T00:11:24.291Z,9.27
2023-01-26T00:13:51.752Z,9.53
2023-01-26T00:16:19.477Z,10.97
2023-01-26T00:18:46.328Z,10.50
2023-01-26T00:21:20.828Z,10.13
2023-01-26T00:23:48.722Z,9.90
2023-01-26T00:26:24.542Z,9.03
2023-01-26T00:28:52.918Z,9.00
2023-01-26T00:31:26.814Z,10.97
2023-01-26T00:33:56.004Z,10.13
2023-01-26T00:36:23.059Z,9.93
2023-01-26T00:38:49.939Z,9.97
2023-01-26T00:41:35.116Z,10.83
2023-01-26T00:44:02.091Z,10.03
2023-01-26T00:46:29.146Z,11.30
2023-01-26T00:48:56.046Z,11.20
2023-01-26T00:51:22.937Z,11.80
2023-01-26T00:53:49.717Z,11.70
2023-01-26T00:56:16.563Z,11.47
2023-01-26T00:58:45.418Z,11.90
2023-01-26T01:01:12.411Z,11.47
2023-01-26T01:03:39.311Z,10.60
2023-01-26T01:06:06.135Z,10.67
2023-01-26T01:08:32.956Z,10.40
2023-01-26T01:11:06.396Z,11.03
2023-01-26T01:13:33.238Z,11.87
2023-01-26T01:16:00.081Z,11.87
2023-01-26T01:18:26.926Z,11.13
2023-01-26T01:20:53.708Z,12.03
2023-01-26T01:23:20.596Z,10.80
2023-01-26T01:25:47.474Z,12.10
2023-01-26T01:28:14.243Z,11.57
2023-01-26T01:30:41.393Z,12.10
2023-01-26T01:33:08.264Z,11.43
2023-01-26T01:35:35.810Z,12.03
2023-01-26T01:38:02.757Z,10.80
2023-01-26T01:40:29.645Z,12.13
2023-01-26T01:42:56.543Z,10.83
2023-01-26T01:45:26.253Z,10.93
2023-01-26T01:48:07.190Z,11.57
2023-01-26T01:50:39.545Z,12.00
2023-01-26T01:53:14.552Z,11.30
2023-01-26T01:55:42.136Z,11.90
2023-01-26T01:58:09.574Z,12.60
2023-01-26T02:00:36.431Z,12.50
2023-01-26T02:03:11.067Z,12.27
2023-01-26T02:06:03.733Z,11.27
2023-01-26T02:08:40.769Z,12.30
2023-01-26T02:11:16.491Z,10.57
2023-01-26T02:13:48.979Z,12.20
2023-01-26T02:16:18.098Z,12.13
2023-01-26T02:18:46.277Z,13.20
2023-01-26T02:21:22.082Z,12.80
2023-01-26T02:24:14.504Z,11.13
2023-01-26T02:26:41.949Z,13.07
2023-01-26T02:29:11.605Z,13.10
2023-01-26T02:31:40.541Z,11.40
2023-01-26T02:34:07.370Z,12.20
2023-01-26T02:36:35.078Z,12.70
2023-01-26T02:39:49.594Z,12.33
2023-01-26T02:42:35.061Z,11.27
2023-01-26T02:45:02.137Z,12.20
2023-01-26T02:47:28.901Z,13.17
2023-01-26T02:49:58.163Z,14.53
2023-01-26T02:52:27.924Z,13.43
2023-01-26T02:55:13.897Z,10.60
2023-01-26T02:57:41.394Z,13.40
2023-01-26T03:00:22.526Z,13.50
2023-01-26T03:02:52.462Z,13.07
2023-01-26T03:05:19.695Z,13.37
2023-01-26T03:07:46.495Z,13.93
2023-01-26T03:10:13.909Z,12.37
2023-01-26T03:12:40.832Z,14.67
2023-01-26T03:15:27.651Z,13.10
2023-01-26T03:18:32.398Z,13.33
2023-01-26T03:21:20.425Z,11.70
2023-01-26T03:24:06.451Z,12.87
2023-01-26T03:26:52.632Z,12.93
2023-01-26T03:29:19.909Z,12.73
2023-01-26T03:31:46.804Z,14.47
2023-01-26T03:34:13.676Z,13.30
2023-01-26T03:36:40.549Z,13.93
2023-01-26T03:39:07.348Z,14.10
2023-01-26T03:41:52.946Z,13.60
2023-01-26T03:44:38.453Z,12.10
2023-01-26T03:47:24.500Z,13.13
2023-01-26T03:50:10.222Z,13.47
2023-01-26T03:52:56.155Z,13.90
2023-01-26T03:55:41.507Z,13.53
2023-01-26T03:58:09.567Z,13.90
2023-01-26T04:00:36.450Z,13.20
2023-01-26T04:03:22.082Z,12.73
2023-01-26T04:06:16.296Z,13.93
2023-01-26T04:08:46.558Z,13.20
2023-01-26T04:11:13.957Z,13.47
2023-01-26T04:13:59.290Z,14.97
2023-01-26T04:16:44.642Z,12.93
2023-01-26T04:19:30.159Z,13.70
2023-01-26T04:22:00.530Z,12.93
2023-01-26T04:24:27.475Z,15.03
2023-01-26T04:26:54.271Z,14.57
2023-01-26T04:29:22.920Z,14.50
2023-01-26T04:31:50.727Z,14.67
2023-01-26T04:34:17.716Z,14.20
2023-01-26T04:36:44.522Z,15.17
2023-01-26T04:39:11.307Z,13.83
2023-01-26T04:41:39.735Z,14.47
2023-01-26T04:44:08.584Z,13.87
2023-01-26T04:46:35.437Z,13.27
2023-01-26T04:49:02.848Z,12.93
2023-01-26T04:51:29.601Z,14.20
2023-01-26T04:53:56.835Z,14.70
2023-01-26T04:56:29.453Z,14.93
2023-01-26T04:58:59.043Z,13.93
2023-01-26T05:01:26.478Z,14.60
2023-01-26T05:03:53.514Z,14.13
2023-01-26T05:06:20.742Z,12.00
2023-01-26T05:08:47.649Z,17.23
2023-01-26T05:11:14.509Z,12.80
2023-01-26T05:13:41.369Z,13.27
2023-01-26T05:16:08.725Z,14.03
2023-01-26T05:18:35.640Z,13.20
2023-01-26T05:21:02.782Z,13.60
2023-01-26T05:23:29.531Z,12.80
2023-01-26T05:25:56.371Z,14.70
2023-01-26T05:28:23.190Z,15.23
2023-01-26T05:30:50.013Z,14.83
2023-01-26T05:33:16.903Z,14.23
2023-01-26T05:35:43.718Z,16.10
2023-01-26T05:38:10.538Z,14.40
2023-01-26T05:40:37.340Z,14.00
2023-01-26T05:43:04.177Z,13.37
2023-01-26T05:45:31.078Z,14.13
2023-01-26T05:47:57.861Z,14.10
2023-01-26T05:50:24.690Z,13.77
2023-01-26T05:52:51.523Z,15.77
2023-01-26T05:55:18.880Z,15.67
2023-01-26T05:57:45.754Z,15.73
2023-01-26T06:00:14.084Z,15.20
2023-01-26T06:02:42.008Z,15.80
2023-01-26T06:05:09.415Z,16.17
2023-01-26T06:07:36.457Z,15.33
2023-01-26T06:10:04.887Z,16.20
2023-01-26T06:12:35.390Z,16.73
2023-01-26T06:15:03.030Z,14.93
2023-01-26T06:17:29.851Z,16.00
2023-01-26T06:19:56.790Z,14.87
2023-01-26T06:22:23.632Z,15.30
2023-01-26T06:24:50.473Z,15.67
2023-01-26T06:27:18.670Z,14.67
2023-01-26T06:29:46.252Z,14.03
2023-01-26T06:32:14.545Z,13.80
2023-01-26T06:34:41.701Z,14.07
2023-01-26T06:37:09.051Z,12.70
2023-01-26T06:39:36.335Z,11.30
2023-01-26T06:42:03.175Z,12.67
2023-01-26T06:44:29.965Z,11.90
2023-01-26T06:46:56.820Z,12.77
2023-01-26T06:49:23.572Z,12.10
2023-01-26T06:52:03.193Z,10.63
2023-01-26T06:54:30.058Z,12.10
2023-01-26T06:56:56.966Z,12.27
2023-01-26T06:59:24.080Z,12.50
2023-01-26T07:01:51.228Z,10.33
2023-01-26T07:04:18.527Z,13.27
2023-01-26T07:06:45.478Z,13.53
2023-01-26T07:09:12.599Z,14.17
2023-01-26T07:11:39.573Z,14.77
2023-01-26T07:14:06.530Z,13.67
2023-01-26T07:16:33.971Z,12.63
2023-01-26T07:19:01.484Z,13.73
2023-01-26T07:21:28.339Z,13.20
2023-01-26T07:23:56.325Z,13.33
2023-01-26T07:26:23.447Z,14.13
2023-01-26T07:28:50.243Z,14.63
2023-01-26T07:31:17.393Z,14.23
2023-01-26T07:33:44.329Z,13.50
2023-01-26T07:36:11.345Z,14.63
2023-01-26T07:38:38.707Z,13.77
2023-01-26T07:41:12.153Z,18.43
2023-01-26T07:43:41.134Z,15.13
2023-01-26T07:46:10.414Z,15.43
2023-01-26T07:48:37.483Z,15.63
2023-01-26T07:51:05.487Z,16.40
2023-01-26T07:53:34.229Z,16.03
2023-01-26T07:56:14.315Z,15.53
2023-01-26T07:58:42.121Z,15.60
2023-01-26T08:01:15.527Z,14.13
2023-01-26T08:03:42.737Z,15.27
2023-01-26T08:06:13.206Z,16.40
2023-01-26T08:08:43.291Z,15.57
2023-01-26T08:11:11.913Z,16.60
2023-01-26T08:13:38.889Z,17.10
2023-01-26T08:16:12.856Z,17.57
2023-01-26T08:18:45.848Z,15.50
2023-01-26T08:21:16.227Z,16.23
2023-01-26T08:23:43.226Z,15.80
2023-01-26T08:26:13.633Z,13.67
2023-01-26T08:28:41.181Z,13.80
2023-01-26T08:31:18.640Z,12.63
2023-01-26T08:33:50.827Z,14.70
2023-01-26T08:36:22.081Z,13.77
2023-01-26T08:38:50.367Z,13.77
2023-01-26T08:41:17.897Z,14.80
2023-01-26T08:43:44.735Z,12.97
2023-01-26T08:46:11.722Z,12.60
2023-01-26T08:48:38.781Z,13.27
2023-01-26T08:51:08.026Z,14.17
2023-01-26T08:53:37.632Z,12.80
2023-01-26T08:56:07.369Z,15.10
2023-01-26T08:58:35.686Z,12.90
2023-01-26T09:01:12.714Z,13.43
2023-01-26T09:03:39.928Z,15.37
2023-01-26T09:06:09.732Z,13.90
2023-01-26T09:08:37.083Z,15.37
2023-01-26T09:11:07.430Z,15.63
2023-01-26T09:13:34.623Z,14.47
2023-01-26T09:16:07.006Z,16.30
2023-01-26T09:18:34.578Z,16.80
2023-01-26T09:21:09.287Z,15.20
2023-01-26T09:23:36.766Z,14.17
2023-01-26T09:26:04.510Z,15.87
2023-01-26T09:28:31.431Z,14.37
2023-01-26T09:31:03.308Z,19.00
2023-01-26T09:33:30.193Z,16.30
2023-01-26T09:35:56.996Z,15.00
2023-01-26T09:38:23.850Z,16.20
2023-01-26T09:41:34.132Z,16.90
2023-01-26T09:44:09.398Z,14.17
2023-01-26T09:47:02.181Z,15.20
2023-01-26T09:49:56.739Z,15.80
2023-01-26T09:52:33.593Z,16.53
2023-01-26T09:55:15.951Z,15.63
2023-01-26T09:58:01.345Z,15.20
2023-01-26T10:00:48.628Z,15.60
2023-01-26T10:03:35.601Z,15.00
2023-01-26T10:06:25.676Z,15.70
2023-01-26T10:08:54.180Z,13.60
2023-01-26T10:11:50.950Z,14.13
2023-01-26T10:14:45.356Z,13.50
2023-01-26T10:17:24.051Z,12.93
2023-01-26T10:20:00.684Z,13.47
2023-01-26T10:22:46.081Z,13.37
2023-01-26T10:25:30.187Z,13.20
2023-01-26T10:27:57.313Z,13.60
2023-01-26T10:30:24.186Z,14.57
2023-01-26T10:32:52.841Z,13.50
2023-01-26T10:35:25.309Z,13.90
2023-01-26T10:37:53.175Z,13.97
2023-01-26T10:40:21.695Z,14.23
2023-01-26T10:42:58.772Z,14.47
2023-01-26T10:45:33.232Z,13.50
2023-01-26T10:48:06.811Z,12.23
2023-01-26T10:50:33.713Z,13.13
2023-01-26T10:53:05.340Z,14.17
2023-01-26T10:55:36.208Z,15.43
2023-01-26T10:58:03.188Z,16.03
2023-01-26T11:00:33.890Z,13.97
2023-01-26T11:03:19.413Z,14.20
2023-01-26T11:05:48.875Z,14.47
2023-01-26T11:08:34.528Z,14.47
2023-01-26T11:11:03.788Z,15.43
2023-01-26T11:13:30.895Z,14.70
2023-01-26T11:16:21.658Z,13.17
2023-01-26T11:19:05.935Z,15.40
2023-01-26T11:21:59.736Z,14.63
2023-01-26T11:25:15.892Z,15.20
2023-01-26T11:28:05.241Z,14.37
2023-01-26T11:30:59.543Z,15.17
2023-01-26T11:34:07.179Z,13.50
2023-01-26T11:36:55.657Z,13.97
2023-01-26T11:39:41.140Z,14.37
2023-01-26T11:42:22.956Z,15.13
2023-01-26T11:45:20.865Z,14.60
2023-01-26T11:47:53.383Z,13.00
2023-01-26T11:50:35.275Z,12.23
2023-01-26T11:53:21.247Z,11.63
2023-01-26T11:56:25.497Z,11.97
2023-01-26T11:59:01.344Z,11.00
2023-01-26T12:01:38.153Z,13.37
2023-01-26T12:04:04.970Z,12.57
2023-01-26T12:06:43.763Z,11.87
2023-01-26T12:09:38.846Z,13.07
2023-01-26T12:12:26.032Z,12.47
2023-01-26T12:15:24.619Z,12.17
2023-01-26T12:18:15.958Z,13.23
2023-01-26T12:20:53.927Z,13.03
2023-01-26T12:23:51.836Z,12.87
2023-01-26T12:26:24.903Z,11.80
2023-01-26T12:29:23.537Z,12.33
2023-01-26T12:32:13.166Z,12.33
2023-01-26T12:34:40.360Z,13.23
2023-01-26T12:37:37.933Z,12.87
2023-01-26T12:41:05.057Z,13.07
2023-01-26T12:43:56.492Z,12.23
2023-01-26T12:46:26.956Z,12.73
2023-01-26T12:49:11.791Z,13.37
2023-01-26T12:52:07.307Z,12.87
2023-01-26T12:55:01.579Z,13.77
2023-01-26T12:57:44.845Z,13.17
2023-01-26T13:00:30.962Z,13.13
2023-01-26T13:03:30.264Z,13.07
2023-01-26T13:06:02.860Z,13.10
2023-01-26T13:08:32.332Z,14.40
2023-01-26T13:11:08.103Z,14.60
2023-01-26T13:13:58.247Z,12.40
2023-01-26T13:16:34.236Z,14.63
2023-01-26T13:19:03.755Z,13.77
2023-01-26T13:21:39.526Z,15.47
2023-01-26T13:24:18.308Z,14.33
2023-01-26T13:26:50.721Z,13.67
2023-01-26T13:29:29.268Z,14.40
2023-01-26T13:32:17.204Z,12.47
2023-01-26T13:34:54.287Z,13.77
2023-01-26T13:37:46.496Z,14.73
2023-01-26T13:40:38.568Z,11.57
2023-01-26T13:43:46.299Z,11.27
2023-01-26T13:46:42.822Z,8.43
2023-01-26T13:49:37.906Z,10.07
2023-01-26T13:52:26.108Z,9.93
2023-01-26T13:55:02.010Z,9.43
2023-01-26T13:57:30.600Z,9.23
2023-01-26T14:00:00.454Z,9.83
2023-01-26T14:02:34.048Z,9.50
2023-01-26T14:05:03.334Z,7.70
2023-01-26T14:07:41.757Z,7.27
2023-01-26T14:10:17.583Z,7.50
2023-01-26T14:12:51.683Z,8.30
2023-01-26T14:15:31.285Z,7.33
2023-01-26T14:18:02.805Z,6.87
2023-01-26T14:20:33.370Z,8.57
2023-01-26T14:23:18.989Z,8.90
2023-01-26T14:26:20.822Z,7.77
2023-01-26T14:28:47.922Z,7.43
2023-01-26T14:31:24.531Z,10.03
2023-01-26T14:33:57.712Z,6.20
2023-01-26T14:36:28.563Z,6.13
2023-01-26T14:38:56.809Z,6.43
2023-01-26T14:41:32.165Z,5.57
2023-01-26T14:44:05.985Z,5.80
2023-01-26T14:46:48.290Z,6.30
2023-01-26T14:49:42.721Z,5.40
2023-01-26T14:52:30.627Z,6.00
2023-01-26T14:55:06.371Z,6.10
2023-01-26T14:57:33.595Z,5.43
2023-01-26T15:00:02.546Z,6.10
2023-01-26T15:02:43.745Z,5.70
2023-01-26T15:05:23.341Z,5.37
2023-01-26T15:08:03.511Z,5.30
2023-01-26T15:11:22.306Z,5.07
2023-01-26T15:13:55.182Z,10.20
2023-01-26T15:16:24.919Z,6.60
2023-01-26T15:19:04.804Z,6.23
2023-01-26T15:21:40.601Z,6.47
2023-01-26T15:24:14.881Z,6.10
2023-01-26T15:26:42.769Z,6.63
2023-01-26T15:29:31.436Z,5.63
2023-01-26T15:31:59.493Z,8.30
2023-01-26T15:34:42.124Z,7.00
2023-01-26T15:37:44.367Z,6.10
2023-01-26T15:40:14.419Z,6.40
2023-01-26T15:42:42.180Z,6.50
2023-01-26T15:45:25.890Z,6.50
2023-01-26T15:47:52.795Z,7.13
2023-01-26T15:50:27.963Z,6.60
2023-01-26T15:52:55.301Z,6.57
2023-01-26T15:55:29.542Z,5.40
2023-01-26T15:57:56.730Z,6.17
2023-01-26T16:00:23.628Z,5.47
2023-01-26T16:02:51.145Z,6.00
2023-01-26T16:05:23.526Z,5.80
2023-01-26T16:07:52.579Z,5.73
2023-01-26T16:10:19.994Z,6.00
2023-01-26T16:12:50.711Z,5.07
2023-01-26T16:15:47.756Z,4.73
2023-01-26T16:18:15.508Z,5.07
2023-01-26T16:20:45.322Z,5.07
2023-01-26T16:23:25.440Z,5.07
2023-01-26T16:25:53.206Z,4.47
2023-01-26T16:28:21.018Z,4.57
2023-01-26T16:30:53.070Z,4.17
2023-01-26T16:33:24.702Z,3.90
2023-01-26T16:35:53.078Z,4.30
2023-01-26T16:38:19.846Z,3.93
2023-01-26T16:40:49.141Z,3.50
2023-01-26T16:43:23.771Z,3.60
2023-01-26T16:45:52.287Z,4.27
2023-01-26T16:48:19.936Z,3.27
2023-01-26T16:50:50.186Z,3.70
2023-01-26T16:53:31.159Z,3.80
2023-01-26T16:55:57.939Z,4.10
2023-01-26T16:58:26.600Z,4.20
2023-01-26T17:00:55.117Z,4.17
2023-01-26T17:03:22.245Z,5.00
2023-01-26T17:05:50.611Z,6.00
2023-01-26T17:08:17.592Z,5.70
2023-01-26T17:11:00.623Z,6.30
2023-01-26T17:13:28.238Z,5.03
2023-01-26T17:15:57.691Z,5.30
2023-01-26T17:18:25.195Z,5.63
2023-01-26T17:20:52.019Z,5.63
2023-01-26T17:23:19.504Z,7.87
2023-01-26T17:25:46.340Z,5.33
2023-01-26T17:28:13.114Z,9.03
2023-01-26T17:30:39.949Z,8.53
2023-01-26T17:33:06.729Z,9.60
2023-01-26T17:35:33.657Z,9.77
2023-01-26T17:38:00.436Z,9.90
2023-01-26T17:40:27.299Z,12.23
2023-01-26T17:42:54.094Z,6.57
2023-01-26T17:45:20.920Z,7.77
2023-01-26T17:47:47.702Z,7.13
2023-01-26T17:50:14.673Z,7.03
2023-01-26T17:52:41.481Z,6.37
2023-01-26T17:55:09.747Z,7.47
2023-01-26T17:57:36.628Z,7.00
2023-01-26T18:00:06.116Z,6.47
2023-01-26T18:02:33.846Z,5.17
2023-01-26T18:05:00.641Z,4.50
2023-01-26T18:07:27.461Z,4.80
2023-01-26T18:09:54.294Z,5.90
2023-01-26T18:12:21.143Z,6.83
2023-01-26T18:14:49.478Z,5.70
2023-01-26T18:17:16.369Z,5.83
2023-01-26T18:19:43.293Z,4.30
2023-01-26T18:22:10.060Z,3.77
2023-01-26T18:24:36.824Z,5.20
2023-01-26T18:27:03.721Z,5.83
2023-01-26T18:29:30.577Z,6.17
2023-01-26T18:31:57.482Z,7.27
2023-01-26T18:34:24.332Z,8.50
2023-01-26T18:36:51.141Z,7.13
2023-01-26T18:39:18.611Z,7.03
2023-01-26T18:41:45.473Z,7.77
2023-01-26T18:44:12.400Z,7.43
2023-01-26T18:46:39.562Z,7.77
2023-01-26T18:49:06.489Z,8.47
2023-01-26T18:51:36.260Z,8.20
2023-01-26T18:54:05.638Z,8.90
2023-01-26T18:56:33.745Z,10.27
2023-01-26T18:59:00.626Z,8.70
2023-01-26T19:01:28.831Z,8.30
2023-01-26T19:03:55.964Z,22.50
2023-01-26T19:06:25.649Z,20.90
2023-01-26T19:09:00.608Z,13.50
2023-01-26T19:11:30.984Z,43.13
2023-01-26T19:13:58.959Z,10.07
2023-01-26T19:16:26.902Z,10.80
2023-01-26T19:18:55.434Z,9.93
2023-01-26T19:21:24.730Z,8.43
2023-01-26T19:23:54.738Z,9.40
2023-01-26T19:26:25.697Z,9.93
2023-01-26T19:28:54.662Z,17.73
2023-01-26T19:31:22.771Z,32.40
2023-01-26T19:33:59.859Z,25.90
2023-01-26T19:36:29.269Z,14.87
2023-01-26T19:38:56.165Z,17.07
2023-01-26T19:41:24.248Z,22.47
2023-01-26T19:43:51.833Z,21.03
2023-01-26T19:46:20.208Z,14.23
2023-01-26T19:48:48.078Z,12.23
2023-01-26T19:51:26.874Z,10.03
2023-01-26T19:53:59.111Z,9.70
2023-01-26T19:56:30.329Z,9.30
2023-01-26T19:59:04.246Z,9.07
2023-01-26T20:01:32.692Z,8.30
2023-01-26T20:04:03.327Z,11.37
2023-01-26T20:06:33.419Z,8.13
2023-01-26T20:09:03.547Z,8.17
2023-01-26T20:11:30.605Z,12.03
2023-01-26T20:14:00.956Z,20.97
2023-01-26T20:16:28.525Z,10.73
2023-01-26T20:18:57.219Z,9.40
2023-01-26T20:21:24.575Z,10.47
2023-01-26T20:23:55.438Z,9.53
2023-01-26T20:26:24.852Z,8.60
2023-01-26T20:28:52.743Z,9.03
2023-01-26T20:31:23.982Z,10.93
2023-01-26T20:33:53.300Z,8.20
2023-01-26T20:36:27.725Z,8.67
2023-01-26T20:38:54.710Z,8.20
2023-01-26T20:41:27.254Z,7.70
2023-01-26T20:44:01.996Z,10.67
2023-01-26T20:46:40.982Z,10.17
2023-01-26T20:49:13.003Z,8.47
2023-01-26T20:51:42.638Z,8.77
2023-01-26T20:54:13.557Z,8.33
2023-01-26T20:56:40.823Z,8.20
2023-01-26T20:59:09.942Z,8.47
2023-01-26T21:01:36.867Z,7.57
2023-01-26T21:04:05.451Z,8.63
2023-01-26T21:06:32.448Z,7.97
2023-01-26T21:09:00.881Z,8.50
2023-01-26T21:11:31.345Z,9.10
2023-01-26T21:14:01.595Z,8.33
2023-01-26T21:16:30.554Z,7.43
2023-01-26T21:18:57.637Z,7.93
2023-01-26T21:21:24.661Z,7.17
2023-01-26T21:23:51.771Z,8.27
2023-01-26T21:26:22.619Z,6.03
2023-01-26T21:28:58.983Z,7.20
2023-01-26T21:31:29.591Z,8.57
2023-01-26T21:33:58.352Z,7.87
2023-01-26T21:36:29.108Z,9.37
2023-01-26T21:38:58.317Z,7.77
2023-01-26T21:41:49.870Z,8.07
2023-01-26T21:44:21.085Z,8.63
2023-01-26T21:47:00.679Z,8.23
2023-01-26T21:49:31.220Z,9.30
2023-01-26T21:52:17.058Z,7.87
2023-01-26T21:54:43.850Z,8.37
2023-01-26T21:57:30.028Z,8.37
2023-01-26T21:59:56.906Z,6.73
2023-01-26T22:02:23.947Z,6.43
2023-01-26T22:04:51.132Z,8.30
2023-01-26T22:07:18.374Z,7.37
2023-01-26T22:09:45.294Z,7.23
2023-01-26T22:12:12.070Z,7.10
2023-01-26T22:14:38.898Z,7.30
2023-01-26T22:17:05.700Z,7.80
2023-01-26T22:19:32.536Z,7.57
2023-01-26T22:21:59.342Z,7.67
2023-01-26T22:24:26.162Z,7.83
2023-01-26T22:26:52.958Z,7.47
2023-01-26T22:29:19.895Z,8.30
2023-01-26T22:31:46.799Z,8.60
2023-01-26T22:34:13.658Z,8.40
2023-01-26T22:36:41.333Z,7.00
2023-01-26T22:39:08.376Z,7.70
2023-01-26T22:41:37.519Z,7.53
2023-01-26T22:44:04.734Z,8.37
2023-01-26T22:46:33.039Z,8.40
2023-01-26T22:49:00.382Z,8.10
2023-01-26T22:51:30.432Z,8.43
2023-01-26T22:53:59.273Z,7.97
2023-01-26T22:56:26.722Z,7.50
2023-01-26T22:59:00.459Z,8.00
2023-01-26T23:01:31.197Z,8.60
2023-01-26T23:03:59.855Z,8.67
2023-01-26T23:06:27.335Z,7.13
2023-01-26T23:08:55.471Z,8.37
2023-01-26T23:11:26.480Z,8.33
2023-01-26T23:13:55.652Z,8.27
2023-01-26T23:16:24.224Z,8.83
2023-01-26T23:18:56.851Z,9.07
2023-01-26T23:21:25.213Z,9.33
2023-01-26T23:23:52.164Z,9.60
2023-01-26T23:26:20.497Z,10.23
2023-01-26T23:28:47.640Z,8.77
2023-01-26T23:31:17.824Z,8.57
2023-01-26T23:33:45.147Z,10.10
2023-01-26T23:36:14.220Z,8.83
2023-01-26T23:38:41.584Z,8.17
2023-01-26T23:41:08.660Z,8.30
2023-01-26T23:43:36.107Z,8.53
2023-01-26T23:46:05.176Z,8.27
2023-01-26T23:48:31.953Z,8.03
2023-01-26T23:51:01.378Z,7.50
2023-01-26T23:53:29.051Z,6.43
2023-01-26T23:55:58.681Z,9.47
2023-01-26T23:58:25.559Z,8.70
